sensor_id;sensor_type;location;lat;lon;timestamp;temperature;humidity
7411;DHT22;3747;48.628;9.058;2023-05-18T00:01:06;2.40;99.90
7411;DHT22;3747;48.628;9.058;2023-05-18T00:03:33;2.40;99.90
7411;DHT22;3747;48.628;9.058;2023-05-18T00:06:00;2.40;99.90
7411;DHT22;3747;48.628;9.058;2023-05-18T00:08:30;2.50;99.90
7411;DHT22;3747;48.628;9.058;2023-05-18T00:10:57;2.50;99.90
7411;DHT22;3747;48.628;9.058;2023-05-18T00:13:23;2.40;99.90
7411;DHT22;3747;48.628;9.058;2023-05-18T00:15:50;2.50;99.90
7411;DHT22;3747;48.628;9.058;2023-05-18T00:18:17;2.50;99.90
7411;DHT22;3747;48.628;9.058;2023-05-18T00:20:48;2.60;99.90
7411;DHT22;3747;48.628;9.058;2023-05-18T00:23:15;2.80;99.90
7411;DHT22;3747;48.628;9.058;2023-05-18T00:25:43;2.90;99.90
7411;DHT22;3747;48.628;9.058;2023-05-18T00:28:10;3.00;99.90
7411;DHT22;3747;48.628;9.058;2023-05-18T00:30:37;2.90;99.90
7411;DHT22;3747;48.628;9.058;2023-05-18T00:33:03;2.80;99.90
7411;DHT22;3747;48.628;9.058;2023-05-18T00:35:30;2.80;99.90
7411;DHT22;3747;48.628;9.058;2023-05-18T00:37:57;2.80;99.90
7411;DHT22;3747;48.628;9.058;2023-05-18T00:40:24;2.80;99.90
7411;DHT22;3747;48.628;9.058;2023-05-18T00:42:52;2.90;99.90
7411;DHT22;3747;48.628;9.058;2023-05-18T00:45:20;2.80;99.90
7411;DHT22;3747;48.628;9.058;2023-05-18T00:47:46;2.80;99.90
7411;DHT22;3747;48.628;9.058;2023-05-18T00:50:13;2.80;99.90
7411;DHT22;3747;48.628;9.058;2023-05-18T00:52:40;2.80;99.90
7411;DHT22;3747;48.628;9.058;2023-05-18T00:55:08;2.70;99.90
7411;DHT22;3747;48.628;9.058;2023-05-18T00:57:37;2.70;99.90
7411;DHT22;3747;48.628;9.058;2023-05-18T01:00:09;2.70;99.90
7411;DHT22;3747;48.628;9.058;2023-05-18T01:02:38;2.60;99.90
7411;DHT22;3747;48.628;9.058;2023-05-18T01:05:07;2.50;99.90
7411;DHT22;3747;48.628;9.058;2023-05-18T01:07:36;2.30;99.90
7411;DHT22;3747;48.628;9.058;2023-05-18T01:10:03;2.20;99.90
7411;DHT22;3747;48.628;9.058;2023-05-18T01:12:35;2.10;99.90
7411;DHT22;3747;48.628;9.058;2023-05-18T01:15:09;2.10;99.90
7411;DHT22;3747;48.628;9.058;2023-05-18T01:17:56;2.00;99.90
7411;DHT22;3747;48.628;9.058;2023-05-18T01:20:30;1.90;99.90
7411;DHT22;3747;48.628;9.058;2023-05-18T01:23:36;1.80;99.90
7411;DHT22;3747;48.628;9.058;2023-05-18T01:26:12;1.70;99.90
7411;DHT22;3747;48.628;9.058;2023-05-18T01:28:40;1.70;99.90
7411;DHT22;3747;48.628;9.058;2023-05-18T01:31:08;1.60;99.90
7411;DHT22;3747;48.628;9.058;2023-05-18T01:33:36;1.60;99.90
7411;DHT22;3747;48.628;9.058;2023-05-18T01:36:03;1.60;99.90
7411;DHT22;3747;48.628;9.058;2023-05-18T01:38:29;1.60;99.90
7411;DHT22;3747;48.628;9.058;2023-05-18T01:41:01;1.60;99.90
7411;DHT22;3747;48.628;9.058;2023-05-18T01:43:32;1.70;99.90
7411;DHT22;3747;48.628;9.058;2023-05-18T01:46:04;1.80;99.90
7411;DHT22;3747;48.628;9.058;2023-05-18T01:48:37;1.70;99.90
7411;DHT22;3747;48.628;9.058;2023-05-18T01:51:05;1.70;99.90
7411;DHT22;3747;48.628;9.058;2023-05-18T01:53:38;1.60;99.90
7411;DHT22;3747;48.628;9.058;2023-05-18T01:56:07;1.50;99.90
7411;DHT22;3747;48.628;9.058;2023-05-18T01:58:37;1.60;99.90
7411;DHT22;3747;48.628;9.058;2023-05-18T02:01:04;1.70;99.90
7411;DHT22;3747;48.628;9.058;2023-05-18T02:03:31;1.80;99.90
7411;DHT22;3747;48.628;9.058;2023-05-18T02:05:58;1.80;99.90
7411;DHT22;3747;48.628;9.058;2023-05-18T02:08:25;1.80;99.90
7411;DHT22;3747;48.628;9.058;2023-05-18T02:10:51;1.90;99.90
7411;DHT22;3747;48.628;9.058;2023-05-18T02:13:18;1.80;99.90
7411;DHT22;3747;48.628;9.058;2023-05-18T02:15:46;1.70;99.90
7411;DHT22;3747;48.628;9.058;2023-05-18T02:18:13;1.60;99.90
7411;DHT22;3747;48.628;9.058;2023-05-18T02:20:41;1.60;99.90
7411;DHT22;3747;48.628;9.058;2023-05-18T02:23:07;1.60;99.90
7411;DHT22;3747;48.628;9.058;2023-05-18T02:25:34;1.60;99.90
7411;DHT22;3747;48.628;9.058;2023-05-18T02:28:01;1.80;99.90
7411;DHT22;3747;48.628;9.058;2023-05-18T02:30:28;1.70;99.90
7411;DHT22;3747;48.628;9.058;2023-05-18T02:32:58;1.70;99.90
7411;DHT22;3747;48.628;9.058;2023-05-18T02:35:25;1.60;99.90
7411;DHT22;3747;48.628;9.058;2023-05-18T02:37:52;1.70;99.90
7411;DHT22;3747;48.628;9.058;2023-05-18T02:40:20;1.80;99.90
7411;DHT22;3747;48.628;9.058;2023-05-18T02:42:46;1.80;99.90
7411;DHT22;3747;48.628;9.058;2023-05-18T02:45:13;1.80;99.90
7411;DHT22;3747;48.628;9.058;2023-05-18T02:47:40;1.80;99.90
7411;DHT22;3747;48.628;9.058;2023-05-18T02:50:10;1.80;99.90
7411;DHT22;3747;48.628;9.058;2023-05-18T02:52:36;1.90;99.90
7411;DHT22;3747;48.628;9.058;2023-05-18T02:55:04;2.00;99.90
7411;DHT22;3747;48.628;9.058;2023-05-18T02:57:31;2.00;99.90
7411;DHT22;3747;48.628;9.058;2023-05-18T02:59:58;2.00;99.90
7411;DHT22;3747;48.628;9.058;2023-05-18T03:02:25;1.90;99.90
7411;DHT22;3747;48.628;9.058;2023-05-18T03:04:52;1.80;99.90
7411;DHT22;3747;48.628;9.058;2023-05-18T03:07:23;1.70;99.90
7411;DHT22;3747;48.628;9.058;2023-05-18T03:09:51;1.60;99.90
7411;DHT22;3747;48.628;9.058;2023-05-18T03:12:18;1.50;99.90
7411;DHT22;3747;48.628;9.058;2023-05-18T03:14:45;1.40;99.90
7411;DHT22;3747;48.628;9.058;2023-05-18T03:17:12;1.40;99.90
7411;DHT22;3747;48.628;9.058;2023-05-18T03:19:39;1.30;99.90
7411;DHT22;3747;48.628;9.058;2023-05-18T03:22:06;1.20;99.90
7411;DHT22;3747;48.628;9.058;2023-05-18T03:24:34;1.30;99.90
7411;DHT22;3747;48.628;9.058;2023-05-18T03:27:04;1.30;99.90
7411;DHT22;3747;48.628;9.058;2023-05-18T03:29:31;1.70;99.90
7411;DHT22;3747;48.628;9.058;2023-05-18T03:31:58;1.70;99.90
7411;DHT22;3747;48.628;9.058;2023-05-18T03:34:25;1.80;99.90
7411;DHT22;3747;48.628;9.058;2023-05-18T03:36:52;1.80;99.90
7411;DHT22;3747;48.628;9.058;2023-05-18T03:39:19;1.80;99.90
7411;DHT22;3747;48.628;9.058;2023-05-18T03:41:47;1.80;99.90
7411;DHT22;3747;48.628;9.058;2023-05-18T03:44:13;1.70;99.90
7411;DHT22;3747;48.628;9.058;2023-05-18T03:46:40;1.70;99.90
7411;DHT22;3747;48.628;9.058;2023-05-18T03:49:07;1.70;99.90
7411;DHT22;3747;48.628;9.058;2023-05-18T03:51:33;1.80;99.90
7411;DHT22;3747;48.628;9.058;2023-05-18T03:54:00;1.80;99.90
7411;DHT22;3747;48.628;9.058;2023-05-18T03:56:27;1.90;99.90
7411;DHT22;3747;48.628;9.058;2023-05-18T03:58:56;2.00;99.90
7411;DHT22;3747;48.628;9.058;2023-05-18T04:01:24;2.00;99.90
7411;DHT22;3747;48.628;9.058;2023-05-18T04:03:54;1.90;99.90
7411;DHT22;3747;48.628;9.058;2023-05-18T04:06:22;1.80;99.90
7411;DHT22;3747;48.628;9.058;2023-05-18T04:08:50;1.80;99.90
7411;DHT22;3747;48.628;9.058;2023-05-18T04:11:17;1.70;99.90
7411;DHT22;3747;48.628;9.058;2023-05-18T04:13:44;1.70;99.90
7411;DHT22;3747;48.628;9.058;2023-05-18T04:16:12;1.70;99.90
7411;DHT22;3747;48.628;9.058;2023-05-18T04:18:39;1.90;99.90
7411;DHT22;3747;48.628;9.058;2023-05-18T04:21:06;2.00;99.90
7411;DHT22;3747;48.628;9.058;2023-05-18T04:23:33;2.10;99.90
7411;DHT22;3747;48.628;9.058;2023-05-18T04:26:03;2.30;99.90
7411;DHT22;3747;48.628;9.058;2023-05-18T04:28:30;2.50;99.90
7411;DHT22;3747;48.628;9.058;2023-05-18T04:30:57;2.70;99.90
7411;DHT22;3747;48.628;9.058;2023-05-18T04:33:25;2.80;99.90
7411;DHT22;3747;48.628;9.058;2023-05-18T04:35:52;2.90;99.90
7411;DHT22;3747;48.628;9.058;2023-05-18T04:38:20;2.90;99.90
7411;DHT22;3747;48.628;9.058;2023-05-18T04:40:47;3.00;99.90
7411;DHT22;3747;48.628;9.058;2023-05-18T04:43:14;3.10;99.90
7411;DHT22;3747;48.628;9.058;2023-05-18T04:45:41;3.10;99.90
7411;DHT22;3747;48.628;9.058;2023-05-18T04:48:10;3.10;99.90
7411;DHT22;3747;48.628;9.058;2023-05-18T04:50:39;3.30;99.90
7411;DHT22;3747;48.628;9.058;2023-05-18T04:53:06;3.40;99.90
7411;DHT22;3747;48.628;9.058;2023-05-18T04:55:34;3.50;99.90
7411;DHT22;3747;48.628;9.058;2023-05-18T04:58:00;3.60;99.90
7411;DHT22;3747;48.628;9.058;2023-05-18T05:00:28;3.70;99.90
7411;DHT22;3747;48.628;9.058;2023-05-18T05:02:56;3.90;99.90
7411;DHT22;3747;48.628;9.058;2023-05-18T05:05:24;4.10;99.90
7411;DHT22;3747;48.628;9.058;2023-05-18T05:07:52;4.20;99.90
7411;DHT22;3747;48.628;9.058;2023-05-18T05:10:20;4.40;99.90
7411;DHT22;3747;48.628;9.058;2023-05-18T05:12:47;4.50;99.90
7411;DHT22;3747;48.628;9.058;2023-05-18T05:15:14;4.70;99.90
7411;DHT22;3747;48.628;9.058;2023-05-18T05:17:41;4.90;99.90
7411;DHT22;3747;48.628;9.058;2023-05-18T05:20:08;5.00;99.90
7411;DHT22;3747;48.628;9.058;2023-05-18T05:22:35;5.10;99.90
7411;DHT22;3747;48.628;9.058;2023-05-18T05:25:04;5.30;99.90
7411;DHT22;3747;48.628;9.058;2023-05-18T05:27:31;5.30;99.90
7411;DHT22;3747;48.628;9.058;2023-05-18T05:29:58;5.40;99.90
7411;DHT22;3747;48.628;9.058;2023-05-18T05:32:24;5.60;99.90
7411;DHT22;3747;48.628;9.058;2023-05-18T05:34:51;5.70;99.90
7411;DHT22;3747;48.628;9.058;2023-05-18T05:37:18;5.80;99.90
7411;DHT22;3747;48.628;9.058;2023-05-18T05:39:45;5.90;99.90
7411;DHT22;3747;48.628;9.058;2023-05-18T05:42:13;6.20;99.90
7411;DHT22;3747;48.628;9.058;2023-05-18T05:44:40;6.40;99.90
7411;DHT22;3747;48.628;9.058;2023-05-18T05:47:07;6.50;99.90
7411;DHT22;3747;48.628;9.058;2023-05-18T05:49:34;6.80;99.90
7411;DHT22;3747;48.628;9.058;2023-05-18T05:52:01;7.00;99.90
7411;DHT22;3747;48.628;9.058;2023-05-18T05:54:27;7.10;99.90
7411;DHT22;3747;48.628;9.058;2023-05-18T05:56:54;7.30;99.90
7411;DHT22;3747;48.628;9.058;2023-05-18T05:59:22;7.60;99.90
7411;DHT22;3747;48.628;9.058;2023-05-18T06:01:49;7.80;99.90
7411;DHT22;3747;48.628;9.058;2023-05-18T06:04:16;7.90;99.90
7411;DHT22;3747;48.628;9.058;2023-05-18T06:06:43;8.30;99.90
7411;DHT22;3747;48.628;9.058;2023-05-18T06:09:09;8.40;99.90
7411;DHT22;3747;48.628;9.058;2023-05-18T06:11:37;8.70;99.90
7411;DHT22;3747;48.628;9.058;2023-05-18T06:14:04;9.00;99.90
7411;DHT22;3747;48.628;9.058;2023-05-18T06:16:32;9.20;99.90
7411;DHT22;3747;48.628;9.058;2023-05-18T06:18:59;9.30;99.90
7411;DHT22;3747;48.628;9.058;2023-05-18T06:21:25;9.40;99.90
7411;DHT22;3747;48.628;9.058;2023-05-18T06:23:52;9.60;99.90
7411;DHT22;3747;48.628;9.058;2023-05-18T06:26:19;9.80;99.90
7411;DHT22;3747;48.628;9.058;2023-05-18T06:28:47;9.90;99.90
7411;DHT22;3747;48.628;9.058;2023-05-18T06:31:14;9.90;99.90
7411;DHT22;3747;48.628;9.058;2023-05-18T06:33:42;10.00;99.90
7411;DHT22;3747;48.628;9.058;2023-05-18T06:36:09;10.10;99.90
7411;DHT22;3747;48.628;9.058;2023-05-18T06:38:36;10.50;99.90
7411;DHT22;3747;48.628;9.058;2023-05-18T06:41:02;10.30;99.90
7411;DHT22;3747;48.628;9.058;2023-05-18T06:43:29;10.60;99.90
7411;DHT22;3747;48.628;9.058;2023-05-18T06:45:56;10.70;99.90
7411;DHT22;3747;48.628;9.058;2023-05-18T06:48:24;10.50;99.90
7411;DHT22;3747;48.628;9.058;2023-05-18T06:50:52;10.80;99.90
7411;DHT22;3747;48.628;9.058;2023-05-18T06:53:19;11.00;99.90
7411;DHT22;3747;48.628;9.058;2023-05-18T06:55:46;11.20;99.90
7411;DHT22;3747;48.628;9.058;2023-05-18T06:58:13;11.70;99.90
7411;DHT22;3747;48.628;9.058;2023-05-18T07:00:40;12.00;99.90
7411;DHT22;3747;48.628;9.058;2023-05-18T07:03:06;12.00;99.90
7411;DHT22;3747;48.628;9.058;2023-05-18T07:05:33;12.00;99.90
7411;DHT22;3747;48.628;9.058;2023-05-18T07:08:02;12.10;99.90
7411;DHT22;3747;48.628;9.058;2023-05-18T07:10:29;12.10;99.90
7411;DHT22;3747;48.628;9.058;2023-05-18T07:12:56;12.30;99.90
7411;DHT22;3747;48.628;9.058;2023-05-18T07:15:22;12.20;99.90
7411;DHT22;3747;48.628;9.058;2023-05-18T07:17:50;12.40;99.90
7411;DHT22;3747;48.628;9.058;2023-05-18T07:20:17;12.40;99.90
7411;DHT22;3747;48.628;9.058;2023-05-18T07:22:43;12.70;99.90
7411;DHT22;3747;48.628;9.058;2023-05-18T07:25:11;13.20;99.90
7411;DHT22;3747;48.628;9.058;2023-05-18T07:27:38;13.30;99.90
7411;DHT22;3747;48.628;9.058;2023-05-18T07:30:07;13.40;99.90
7411;DHT22;3747;48.628;9.058;2023-05-18T07:32:34;13.50;99.90
7411;DHT22;3747;48.628;9.058;2023-05-18T07:35:01;13.80;99.90
7411;DHT22;3747;48.628;9.058;2023-05-18T07:37:27;13.80;99.90
7411;DHT22;3747;48.628;9.058;2023-05-18T07:39:54;14.10;99.90
7411;DHT22;3747;48.628;9.058;2023-05-18T07:42:22;13.80;99.90
7411;DHT22;3747;48.628;9.058;2023-05-18T07:44:49;14.20;99.90
7411;DHT22;3747;48.628;9.058;2023-05-18T07:47:16;14.10;99.90
7411;DHT22;3747;48.628;9.058;2023-05-18T07:49:45;14.10;99.90
7411;DHT22;3747;48.628;9.058;2023-05-18T07:52:12;14.10;99.90
7411;DHT22;3747;48.628;9.058;2023-05-18T07:54:39;14.00;99.90
7411;DHT22;3747;48.628;9.058;2023-05-18T07:57:06;14.30;99.90
7411;DHT22;3747;48.628;9.058;2023-05-18T07:59:34;14.20;99.90
7411;DHT22;3747;48.628;9.058;2023-05-18T08:02:00;14.80;99.90
7411;DHT22;3747;48.628;9.058;2023-05-18T08:04:27;14.90;99.90
7411;DHT22;3747;48.628;9.058;2023-05-18T08:06:54;15.00;99.90
7411;DHT22;3747;48.628;9.058;2023-05-18T08:09:24;15.40;99.90
7411;DHT22;3747;48.628;9.058;2023-05-18T08:11:51;14.80;99.90
7411;DHT22;3747;48.628;9.058;2023-05-18T08:14:17;15.20;99.90
7411;DHT22;3747;48.628;9.058;2023-05-18T08:16:46;15.50;99.90
7411;DHT22;3747;48.628;9.058;2023-05-18T08:19:12;15.50;99.90
7411;DHT22;3747;48.628;9.058;2023-05-18T08:21:39;15.50;99.90
7411;DHT22;3747;48.628;9.058;2023-05-18T08:24:06;15.70;99.90
7411;DHT22;3747;48.628;9.058;2023-05-18T08:26:33;16.10;99.90
7411;DHT22;3747;48.628;9.058;2023-05-18T08:29:00;15.60;99.90
7411;DHT22;3747;48.628;9.058;2023-05-18T08:31:28;16.00;99.90
7411;DHT22;3747;48.628;9.058;2023-05-18T08:33:56;16.20;99.90
7411;DHT22;3747;48.628;9.058;2023-05-18T08:36:22;16.30;99.90
7411;DHT22;3747;48.628;9.058;2023-05-18T08:38:49;16.00;99.90
7411;DHT22;3747;48.628;9.058;2023-05-18T08:41:19;16.40;99.90
7411;DHT22;3747;48.628;9.058;2023-05-18T08:43:58;16.50;99.90
7411;DHT22;3747;48.628;9.058;2023-05-18T08:46:30;17.20;99.90
7411;DHT22;3747;48.628;9.058;2023-05-18T08:49:00;16.70;99.90
7411;DHT22;3747;48.628;9.058;2023-05-18T08:51:28;16.20;99.90
7411;DHT22;3747;48.628;9.058;2023-05-18T08:53:59;16.70;99.90
7411;DHT22;3747;48.628;9.058;2023-05-18T08:56:30;16.60;99.90
7411;DHT22;3747;48.628;9.058;2023-05-18T08:58:58;17.00;99.90
7411;DHT22;3747;48.628;9.058;2023-05-18T09:01:25;17.40;99.90
7411;DHT22;3747;48.628;9.058;2023-05-18T09:03:54;17.40;99.90
7411;DHT22;3747;48.628;9.058;2023-05-18T09:06:22;17.30;99.90
7411;DHT22;3747;48.628;9.058;2023-05-18T09:08:52;17.20;99.90
7411;DHT22;3747;48.628;9.058;2023-05-18T09:11:19;17.30;99.90
7411;DHT22;3747;48.628;9.058;2023-05-18T09:13:47;17.50;99.90
7411;DHT22;3747;48.628;9.058;2023-05-18T09:16:14;17.60;99.90
7411;DHT22;3747;48.628;9.058;2023-05-18T09:18:41;17.60;99.90
7411;DHT22;3747;48.628;9.058;2023-05-18T09:21:08;17.60;99.90
7411;DHT22;3747;48.628;9.058;2023-05-18T09:23:38;17.30;99.90
7411;DHT22;3747;48.628;9.058;2023-05-18T09:26:05;17.20;99.90
7411;DHT22;3747;48.628;9.058;2023-05-18T09:28:35;17.70;99.90
7411;DHT22;3747;48.628;9.058;2023-05-18T09:31:02;16.70;99.90
7411;DHT22;3747;48.628;9.058;2023-05-18T09:33:32;16.10;99.90
7411;DHT22;3747;48.628;9.058;2023-05-18T09:36:00;17.10;99.90
7411;DHT22;3747;48.628;9.058;2023-05-18T09:38:27;17.60;99.90
7411;DHT22;3747;48.628;9.058;2023-05-18T09:40:55;17.90;99.90
7411;DHT22;3747;48.628;9.058;2023-05-18T09:43:21;18.20;99.90
7411;DHT22;3747;48.628;9.058;2023-05-18T09:45:48;18.10;99.90
7411;DHT22;3747;48.628;9.058;2023-05-18T09:48:15;17.50;99.90
7411;DHT22;3747;48.628;9.058;2023-05-18T09:50:42;17.10;99.90
7411;DHT22;3747;48.628;9.058;2023-05-18T09:53:10;17.70;99.90
7411;DHT22;3747;48.628;9.058;2023-05-18T09:55:43;17.90;99.90
7411;DHT22;3747;48.628;9.058;2023-05-18T09:58:12;18.00;99.90
7411;DHT22;3747;48.628;9.058;2023-05-18T10:00:40;18.20;99.90
7411;DHT22;3747;48.628;9.058;2023-05-18T10:03:16;18.40;99.90
7411;DHT22;3747;48.628;9.058;2023-05-18T10:05:43;18.50;99.90
7411;DHT22;3747;48.628;9.058;2023-05-18T10:08:11;18.50;99.90
7411;DHT22;3747;48.628;9.058;2023-05-18T10:10:38;18.10;99.90
7411;DHT22;3747;48.628;9.058;2023-05-18T10:13:05;16.90;99.90
7411;DHT22;3747;48.628;9.058;2023-05-18T10:15:34;17.10;99.90
7411;DHT22;3747;48.628;9.058;2023-05-18T10:18:02;18.00;99.90
7411;DHT22;3747;48.628;9.058;2023-05-18T10:20:31;18.00;99.90
7411;DHT22;3747;48.628;9.058;2023-05-18T10:22:59;18.60;99.90
7411;DHT22;3747;48.628;9.058;2023-05-18T10:25:31;18.90;99.90
7411;DHT22;3747;48.628;9.058;2023-05-18T10:28:00;18.10;99.90
7411;DHT22;3747;48.628;9.058;2023-05-18T10:30:29;17.90;99.90
7411;DHT22;3747;48.628;9.058;2023-05-18T10:32:58;18.70;99.90
7411;DHT22;3747;48.628;9.058;2023-05-18T10:35:26;18.70;99.90
7411;DHT22;3747;48.628;9.058;2023-05-18T10:37:54;19.00;99.90
7411;DHT22;3747;48.628;9.058;2023-05-18T10:40:23;19.00;99.90
7411;DHT22;3747;48.628;9.058;2023-05-18T10:42:51;19.80;99.90
7411;DHT22;3747;48.628;9.058;2023-05-18T10:45:19;20.00;99.90
7411;DHT22;3747;48.628;9.058;2023-05-18T10:47:47;19.00;99.90
7411;DHT22;3747;48.628;9.058;2023-05-18T10:50:20;18.20;99.90
7411;DHT22;3747;48.628;9.058;2023-05-18T10:52:49;19.30;99.90
7411;DHT22;3747;48.628;9.058;2023-05-18T10:55:17;19.80;98.00
7411;DHT22;3747;48.628;9.058;2023-05-18T10:57:47;20.20;99.90
7411;DHT22;3747;48.628;9.058;2023-05-18T11:00:17;20.40;98.80
7411;DHT22;3747;48.628;9.058;2023-05-18T11:02:44;20.40;98.00
7411;DHT22;3747;48.628;9.058;2023-05-18T11:05:12;20.30;97.90
7411;DHT22;3747;48.628;9.058;2023-05-18T11:07:44;20.30;97.70
7411;DHT22;3747;48.628;9.058;2023-05-18T11:10:13;20.60;98.30
7411;DHT22;3747;48.628;9.058;2023-05-18T11:12:40;20.70;97.20
7411;DHT22;3747;48.628;9.058;2023-05-18T11:15:08;20.00;97.00
7411;DHT22;3747;48.628;9.058;2023-05-18T11:17:34;19.70;97.30
7411;DHT22;3747;48.628;9.058;2023-05-18T11:20:12;20.30;99.90
7411;DHT22;3747;48.628;9.058;2023-05-18T11:22:43;20.30;97.50
7411;DHT22;3747;48.628;9.058;2023-05-18T11:25:39;20.20;96.30
7411;DHT22;3747;48.628;9.058;2023-05-18T11:28:09;20.60;96.60
7411;DHT22;3747;48.628;9.058;2023-05-18T11:30:47;20.30;95.00
7411;DHT22;3747;48.628;9.058;2023-05-18T11:33:15;21.00;95.80
7411;DHT22;3747;48.628;9.058;2023-05-18T11:35:57;22.20;97.80
7411;DHT22;3747;48.628;9.058;2023-05-18T11:38:45;21.40;95.70
7411;DHT22;3747;48.628;9.058;2023-05-18T11:41:26;19.80;94.80
7411;DHT22;3747;48.628;9.058;2023-05-18T11:44:02;20.30;95.30
7411;DHT22;3747;48.628;9.058;2023-05-18T11:46:31;19.50;94.50
7411;DHT22;3747;48.628;9.058;2023-05-18T11:49:02;19.10;95.10
7411;DHT22;3747;48.628;9.058;2023-05-18T11:51:30;19.10;94.80
7411;DHT22;3747;48.628;9.058;2023-05-18T11:53:58;19.70;95.80
7411;DHT22;3747;48.628;9.058;2023-05-18T11:56:26;20.20;94.70
7411;DHT22;3747;48.628;9.058;2023-05-18T11:59:09;20.90;95.90
7411;DHT22;3747;48.628;9.058;2023-05-18T12:01:37;21.00;94.50
7411;DHT22;3747;48.628;9.058;2023-05-18T12:04:04;21.70;94.30
7411;DHT22;3747;48.628;9.058;2023-05-18T12:06:31;22.00;93.60
7411;DHT22;3747;48.628;9.058;2023-05-18T12:08:59;21.50;94.40
7411;DHT22;3747;48.628;9.058;2023-05-18T12:11:26;21.30;93.80
7411;DHT22;3747;48.628;9.058;2023-05-18T12:13:54;20.30;94.10
7411;DHT22;3747;48.628;9.058;2023-05-18T12:16:21;19.10;94.20
7411;DHT22;3747;48.628;9.058;2023-05-18T12:18:48;19.60;94.90
7411;DHT22;3747;48.628;9.058;2023-05-18T12:21:20;20.90;93.30
7411;DHT22;3747;48.628;9.058;2023-05-18T12:23:47;21.40;94.20
7411;DHT22;3747;48.628;9.058;2023-05-18T12:26:15;20.90;93.20
7411;DHT22;3747;48.628;9.058;2023-05-18T12:28:45;20.50;92.50
7411;DHT22;3747;48.628;9.058;2023-05-18T12:31:12;19.60;93.50
7411;DHT22;3747;48.628;9.058;2023-05-18T12:33:41;19.20;94.00
7411;DHT22;3747;48.628;9.058;2023-05-18T12:36:09;19.90;94.20
7411;DHT22;3747;48.628;9.058;2023-05-18T12:38:36;20.70;92.70
7411;DHT22;3747;48.628;9.058;2023-05-18T12:41:03;20.40;93.30
7411;DHT22;3747;48.628;9.058;2023-05-18T12:43:33;19.90;93.30
7411;DHT22;3747;48.628;9.058;2023-05-18T12:46:00;19.90;93.40
7411;DHT22;3747;48.628;9.058;2023-05-18T12:48:27;20.00;93.30
7411;DHT22;3747;48.628;9.058;2023-05-18T12:50:55;19.70;94.20
7411;DHT22;3747;48.628;9.058;2023-05-18T12:53:22;20.40;94.30
7411;DHT22;3747;48.628;9.058;2023-05-18T12:55:55;20.20;93.30
7411;DHT22;3747;48.628;9.058;2023-05-18T12:58:22;20.30;92.50
7411;DHT22;3747;48.628;9.058;2023-05-18T13:00:50;19.50;94.20
7411;DHT22;3747;48.628;9.058;2023-05-18T13:03:18;20.70;94.40
7411;DHT22;3747;48.628;9.058;2023-05-18T13:06:01;21.60;94.20
7411;DHT22;3747;48.628;9.058;2023-05-18T13:08:27;21.80;94.30
7411;DHT22;3747;48.628;9.058;2023-05-18T13:11:00;22.30;92.10
7411;DHT22;3747;48.628;9.058;2023-05-18T13:13:27;21.90;92.00
7411;DHT22;3747;48.628;9.058;2023-05-18T13:15:55;20.90;93.30
7411;DHT22;3747;48.628;9.058;2023-05-18T13:18:24;20.50;92.80
7411;DHT22;3747;48.628;9.058;2023-05-18T13:20:52;20.20;93.90
7411;DHT22;3747;48.628;9.058;2023-05-18T13:23:22;20.30;93.20
7411;DHT22;3747;48.628;9.058;2023-05-18T13:25:49;20.50;91.50
7411;DHT22;3747;48.628;9.058;2023-05-18T13:28:17;22.10;92.90
7411;DHT22;3747;48.628;9.058;2023-05-18T13:30:45;23.30;90.80
7411;DHT22;3747;48.628;9.058;2023-05-18T13:33:15;22.20;89.40
7411;DHT22;3747;48.628;9.058;2023-05-18T13:35:43;20.30;92.10
7411;DHT22;3747;48.628;9.058;2023-05-18T13:38:10;19.30;92.50
7411;DHT22;3747;48.628;9.058;2023-05-18T13:40:37;18.70;91.60
7411;DHT22;3747;48.628;9.058;2023-05-18T13:43:04;19.20;92.70
7411;DHT22;3747;48.628;9.058;2023-05-18T13:45:31;20.80;91.70
7411;DHT22;3747;48.628;9.058;2023-05-18T13:47:58;21.20;90.30
7411;DHT22;3747;48.628;9.058;2023-05-18T13:50:26;20.00;91.50
7411;DHT22;3747;48.628;9.058;2023-05-18T13:52:53;19.00;91.80
7411;DHT22;3747;48.628;9.058;2023-05-18T13:55:20;18.30;92.00
7411;DHT22;3747;48.628;9.058;2023-05-18T13:57:47;18.00;92.80
7411;DHT22;3747;48.628;9.058;2023-05-18T14:00:14;17.70;93.40
7411;DHT22;3747;48.628;9.058;2023-05-18T14:02:42;17.50;93.00
7411;DHT22;3747;48.628;9.058;2023-05-18T14:05:09;17.40;93.90
7411;DHT22;3747;48.628;9.058;2023-05-18T14:07:39;17.30;93.70
7411;DHT22;3747;48.628;9.058;2023-05-18T14:10:07;17.80;93.70
7411;DHT22;3747;48.628;9.058;2023-05-18T14:12:34;18.00;92.50
7411;DHT22;3747;48.628;9.058;2023-05-18T14:15:02;18.10;92.70
7411;DHT22;3747;48.628;9.058;2023-05-18T14:17:29;18.70;93.60
7411;DHT22;3747;48.628;9.058;2023-05-18T14:19:57;20.10;92.20
7411;DHT22;3747;48.628;9.058;2023-05-18T14:22:24;20.90;93.30
7411;DHT22;3747;48.628;9.058;2023-05-18T14:24:53;20.20;91.60
7411;DHT22;3747;48.628;9.058;2023-05-18T14:27:19;19.80;92.50
7411;DHT22;3747;48.628;9.058;2023-05-18T14:29:46;19.50;92.90
7411;DHT22;3747;48.628;9.058;2023-05-18T14:32:13;19.00;92.10
7411;DHT22;3747;48.628;9.058;2023-05-18T14:34:48;18.70;92.20
7411;DHT22;3747;48.628;9.058;2023-05-18T14:37:16;18.40;92.00
7411;DHT22;3747;48.628;9.058;2023-05-18T14:39:53;18.30;93.00
7411;DHT22;3747;48.628;9.058;2023-05-18T14:42:30;18.40;93.10
7411;DHT22;3747;48.628;9.058;2023-05-18T14:44:57;18.00;93.60
7411;DHT22;3747;48.628;9.058;2023-05-18T14:47:23;17.80;93.60
7411;DHT22;3747;48.628;9.058;2023-05-18T14:49:51;17.40;94.20
7411;DHT22;3747;48.628;9.058;2023-05-18T14:52:18;17.30;93.10
7411;DHT22;3747;48.628;9.058;2023-05-18T14:54:52;16.90;93.20
7411;DHT22;3747;48.628;9.058;2023-05-18T14:57:19;16.70;93.50
7411;DHT22;3747;48.628;9.058;2023-05-18T14:59:46;16.70;94.20
7411;DHT22;3747;48.628;9.058;2023-05-18T15:02:18;16.70;92.90
7411;DHT22;3747;48.628;9.058;2023-05-18T15:04:45;16.60;93.10
7411;DHT22;3747;48.628;9.058;2023-05-18T15:07:29;16.30;93.40
7411;DHT22;3747;48.628;9.058;2023-05-18T15:09:57;16.20;93.40
7411;DHT22;3747;48.628;9.058;2023-05-18T15:12:24;16.20;94.30
7411;DHT22;3747;48.628;9.058;2023-05-18T15:14:51;16.10;94.30
7411;DHT22;3747;48.628;9.058;2023-05-18T15:17:18;16.10;95.40
7411;DHT22;3747;48.628;9.058;2023-05-18T15:19:45;16.10;94.80
7411;DHT22;3747;48.628;9.058;2023-05-18T15:22:12;16.00;94.00
7411;DHT22;3747;48.628;9.058;2023-05-18T15:24:39;16.10;94.30
7411;DHT22;3747;48.628;9.058;2023-05-18T15:27:07;16.00;94.60
7411;DHT22;3747;48.628;9.058;2023-05-18T15:29:35;16.00;95.20
7411;DHT22;3747;48.628;9.058;2023-05-18T15:32:01;16.10;94.70
7411;DHT22;3747;48.628;9.058;2023-05-18T15:34:28;16.00;94.20
7411;DHT22;3747;48.628;9.058;2023-05-18T15:36:57;16.00;94.40
7411;DHT22;3747;48.628;9.058;2023-05-18T15:39:24;16.00;94.50
7411;DHT22;3747;48.628;9.058;2023-05-18T15:42:00;15.80;94.30
7411;DHT22;3747;48.628;9.058;2023-05-18T15:44:30;15.70;94.70
7411;DHT22;3747;48.628;9.058;2023-05-18T15:46:56;15.60;95.00
7411;DHT22;3747;48.628;9.058;2023-05-18T15:49:25;15.60;95.10
7411;DHT22;3747;48.628;9.058;2023-05-18T15:51:53;15.60;95.70
7411;DHT22;3747;48.628;9.058;2023-05-18T15:54:20;15.60;95.10
7411;DHT22;3747;48.628;9.058;2023-05-18T15:56:52;15.60;95.30
7411;DHT22;3747;48.628;9.058;2023-05-18T15:59:19;15.50;95.80
7411;DHT22;3747;48.628;9.058;2023-05-18T16:01:49;15.50;95.60
7411;DHT22;3747;48.628;9.058;2023-05-18T16:04:35;15.40;95.80
7411;DHT22;3747;48.628;9.058;2023-05-18T16:07:02;15.20;95.70
7411;DHT22;3747;48.628;9.058;2023-05-18T16:09:28;15.10;95.30
7411;DHT22;3747;48.628;9.058;2023-05-18T16:11:55;14.90;95.50
7411;DHT22;3747;48.628;9.058;2023-05-18T16:14:22;14.80;96.10